sensor_id;sensor_type;location;lat;lon;timestamp;pressure;altitude;pressure_sealevel;temperature;humidity
53506;BME280;39388;50.936;6.848;2023-03-29T00:01:27;101196.88;;;7.39;71.29
53506;BME280;39388;50.936;6.848;2023-03-29T00:04:00;101194.31;;;7.39;71.60
53506;BME280;39388;50.936;6.848;2023-03-29T00:06:30;101194.28;;;7.38;71.23
53506;BME280;39388;50.936;6.848;2023-03-29T00:09:02;101196.03;;;7.39;71.43
53506;BME280;39388;50.936;6.848;2023-03-29T00:11:34;101188.31;;;7.39;71.44
53506;BME280;39388;50.936;6.848;2023-03-29T00:14:04;101190.88;;;7.39;71.35
53506;BME280;39388;50.936;6.848;2023-03-29T00:16:35;101182.25;;;7.33;71.49
53506;BME280;39388;50.936;6.848;2023-03-29T00:19:05;101185.81;;;7.40;71.16
53506;BME280;39388;50.936;6.848;2023-03-29T00:21:36;101186.72;;;7.44;71.18
53506;BME280;39388;50.936;6.848;2023-03-29T00:24:06;101182.41;;;7.41;71.33
53506;BME280;39388;50.936;6.848;2023-03-29T00:26:36;101166.91;;;7.36;71.12
53506;BME280;39388;50.936;6.848;2023-03-29T00:29:07;101167.00;;;7.40;70.98
53506;BME280;39388;50.936;6.848;2023-03-29T00:31:37;101169.59;;;7.43;71.55
53506;BME280;39388;50.936;6.848;2023-03-29T00:34:08;101171.22;;;7.39;71.76
53506;BME280;39388;50.936;6.848;2023-03-29T00:36:38;101164.28;;;7.35;71.64
53506;BME280;39388;50.936;6.848;2023-03-29T00:39:09;101166.16;;;7.41;71.87
53506;BME280;39388;50.936;6.848;2023-03-29T00:41:39;101156.66;;;7.38;71.42
53506;BME280;39388;50.936;6.848;2023-03-29T00:47:20;101148.13;;;7.39;71.65
53506;BME280;39388;50.936;6.848;2023-03-29T00:49:52;101147.19;;;7.34;71.45
53506;BME280;39388;50.936;6.848;2023-03-29T00:52:23;101146.34;;;7.35;71.64
53506;BME280;39388;50.936;6.848;2023-03-29T00:55:02;101135.19;;;7.31;71.68
53506;BME280;39388;50.936;6.848;2023-03-29T00:57:36;101136.91;;;7.34;71.37
53506;BME280;39388;50.936;6.848;2023-03-29T01:00:09;101130.16;;;7.38;71.50
53506;BME280;39388;50.936;6.848;2023-03-29T01:02:41;101131.00;;;7.36;71.95
53506;BME280;39388;50.936;6.848;2023-03-29T01:05:17;101124.97;;;7.34;71.80
53506;BME280;39388;50.936;6.848;2023-03-29T01:07:54;101120.56;;;7.27;71.65
53506;BME280;39388;50.936;6.848;2023-03-29T01:10:34;101133.50;;;7.32;71.44
53506;BME280;39388;50.936;6.848;2023-03-29T01:13:12;101116.25;;;7.23;71.38
53506;BME280;39388;50.936;6.848;2023-03-29T01:15:45;101122.34;;;7.30;72.08
53506;BME280;39388;50.936;6.848;2023-03-29T01:18:16;101121.44;;;7.28;71.85
53506;BME280;39388;50.936;6.848;2023-03-29T01:28:58;101111.25;;;7.32;71.85
53506;BME280;39388;50.936;6.848;2023-03-29T01:31:35;101113.81;;;7.34;71.74
53506;BME280;39388;50.936;6.848;2023-03-29T01:34:11;101101.88;;;7.33;72.22
53506;BME280;39388;50.936;6.848;2023-03-29T01:36:55;101101.88;;;7.34;72.52
53506;BME280;39388;50.936;6.848;2023-03-29T01:39:30;101097.59;;;7.35;71.42
53506;BME280;39388;50.936;6.848;2023-03-29T01:44:34;101098.53;;;7.39;72.13
53506;BME280;39388;50.936;6.848;2023-03-29T01:53:36;101091.69;;;7.39;71.86
53506;BME280;39388;50.936;6.848;2023-03-29T01:56:10;101090.03;;;7.43;71.90
53506;BME280;39388;50.936;6.848;2023-03-29T01:58:45;101082.34;;;7.41;71.87
53506;BME280;39388;50.936;6.848;2023-03-29T02:01:23;101084.00;;;7.39;72.49
53506;BME280;39388;50.936;6.848;2023-03-29T02:03:58;101084.91;;;7.40;72.05
53506;BME280;39388;50.936;6.848;2023-03-29T02:06:30;101078.94;;;7.42;72.34
53506;BME280;39388;50.936;6.848;2023-03-29T02:09:02;101072.91;;;7.40;72.73
53506;BME280;39388;50.936;6.848;2023-03-29T02:11:34;101077.22;;;7.41;72.43
53506;BME280;39388;50.936;6.848;2023-03-29T02:14:05;101062.63;;;7.39;72.29
53506;BME280;39388;50.936;6.848;2023-03-29T02:16:36;101059.25;;;7.41;72.59
53506;BME280;39388;50.936;6.848;2023-03-29T02:19:08;101064.44;;;7.44;72.86
53506;BME280;39388;50.936;6.848;2023-03-29T02:21:39;101063.59;;;7.48;72.72
53506;BME280;39388;50.936;6.848;2023-03-29T02:24:18;101061.09;;;7.50;72.55
53506;BME280;39388;50.936;6.848;2023-03-29T02:26:50;101061.09;;;7.51;72.90
53506;BME280;39388;50.936;6.848;2023-03-29T02:29:20;101045.63;;;7.45;72.54
53506;BME280;39388;50.936;6.848;2023-03-29T02:31:55;101053.38;;;7.50;72.47
53506;BME280;39388;50.936;6.848;2023-03-29T02:34:33;101043.16;;;7.53;72.25
53506;BME280;39388;50.936;6.848;2023-03-29T02:37:12;101028.47;;;7.43;72.10
53506;BME280;39388;50.936;6.848;2023-03-29T02:39:47;101045.75;;;7.55;71.98
53506;BME280;39388;50.936;6.848;2023-03-29T02:42:19;101040.63;;;7.55;72.26
53506;BME280;39388;50.936;6.848;2023-03-29T02:44:54;101034.63;;;7.56;72.42
53506;BME280;39388;50.936;6.848;2023-03-29T02:47:31;101023.44;;;7.50;72.48
53506;BME280;39388;50.936;6.848;2023-03-29T02:50:04;101031.19;;;7.54;72.62
53506;BME280;39388;50.936;6.848;2023-03-29T02:52:44;101038.13;;;7.61;72.74
53506;BME280;39388;50.936;6.848;2023-03-29T02:55:17;101044.13;;;7.63;72.82
53506;BME280;39388;50.936;6.848;2023-03-29T02:57:48;101044.13;;;7.63;72.58
53506;BME280;39388;50.936;6.848;2023-03-29T03:00:18;101047.56;;;7.63;72.34
53506;BME280;39388;50.936;6.848;2023-03-29T03:02:49;101045.88;;;7.65;72.47
53506;BME280;39388;50.936;6.848;2023-03-29T03:05:19;101045.84;;;7.62;72.32
53506;BME280;39388;50.936;6.848;2023-03-29T03:07:50;101046.78;;;7.69;72.88
53506;BME280;39388;50.936;6.848;2023-03-29T03:10:20;101051.91;;;7.71;72.48
53506;BME280;39388;50.936;6.848;2023-03-29T03:12:51;101045.09;;;7.71;72.34
53506;BME280;39388;50.936;6.848;2023-03-29T03:15:22;101049.34;;;7.71;72.37
53506;BME280;39388;50.936;6.848;2023-03-29T03:17:53;101047.66;;;7.73;72.61
53506;BME280;39388;50.936;6.848;2023-03-29T03:20:23;101038.25;;;7.72;72.71
53506;BME280;39388;50.936;6.848;2023-03-29T03:22:54;101034.03;;;7.75;72.75
53506;BME280;39388;50.936;6.848;2023-03-29T03:25:26;101037.44;;;7.74;72.75
53506;BME280;39388;50.936;6.848;2023-03-29T03:27:57;101035.75;;;7.76;72.45
53506;BME280;39388;50.936;6.848;2023-03-29T03:30:28;101033.16;;;7.75;72.95
53506;BME280;39388;50.936;6.848;2023-03-29T03:32:59;101034.03;;;7.78;72.97
53506;BME280;39388;50.936;6.848;2023-03-29T03:35:29;101028.91;;;7.78;72.54
53506;BME280;39388;50.936;6.848;2023-03-29T03:37:59;101010.00;;;7.70;72.43
53506;BME280;39388;50.936;6.848;2023-03-29T03:40:31;101010.09;;;7.76;72.50
53506;BME280;39388;50.936;6.848;2023-03-29T03:43:01;101010.97;;;7.80;72.40
53506;BME280;39388;50.936;6.848;2023-03-29T03:45:31;101012.72;;;7.82;72.79
53506;BME280;39388;50.936;6.848;2023-03-29T03:48:02;101008.41;;;7.81;72.66
53506;BME280;39388;50.936;6.848;2023-03-29T03:50:32;101017.88;;;7.87;72.58
53506;BME280;39388;50.936;6.848;2023-03-29T03:53:03;101010.19;;;7.87;72.56
53506;BME280;39388;50.936;6.848;2023-03-29T03:55:34;101015.34;;;7.90;72.51
53506;BME280;39388;50.936;6.848;2023-03-29T03:58:04;101006.78;;;7.88;72.13
53506;BME280;39388;50.936;6.848;2023-03-29T04:00:36;100993.09;;;7.88;72.04
53506;BME280;39388;50.936;6.848;2023-03-29T04:03:06;101005.97;;;7.94;72.38
53506;BME280;39388;50.936;6.848;2023-03-29T04:05:40;101001.69;;;7.93;72.47
53506;BME280;39388;50.936;6.848;2023-03-29T04:08:13;101007.66;;;7.92;72.25
53506;BME280;39388;50.936;6.848;2023-03-29T04:10:53;101000.84;;;7.94;72.48
53506;BME280;39388;50.936;6.848;2023-03-29T04:13:25;101004.31;;;7.97;72.50
53506;BME280;39388;50.936;6.848;2023-03-29T04:15:56;100994.00;;;7.94;72.48
53506;BME280;39388;50.936;6.848;2023-03-29T04:18:26;100994.84;;;7.93;72.47
53506;BME280;39388;50.936;6.848;2023-03-29T04:20:57;101001.75;;;7.99;72.32
53506;BME280;39388;50.936;6.848;2023-03-29T04:23:27;101002.59;;;7.98;72.45
53506;BME280;39388;50.936;6.848;2023-03-29T04:25:57;101002.59;;;7.98;72.20
53506;BME280;39388;50.936;6.848;2023-03-29T04:28:28;100997.50;;;8.01;72.35
53506;BME280;39388;50.936;6.848;2023-03-29T04:30:58;101005.25;;;8.04;72.16
53506;BME280;39388;50.936;6.848;2023-03-29T04:33:29;101003.53;;;8.06;72.12
53506;BME280;39388;50.936;6.848;2023-03-29T04:35:59;101000.13;;;8.07;72.33
53506;BME280;39388;50.936;6.848;2023-03-29T04:38:30;100990.69;;;8.06;72.55
53506;BME280;39388;50.936;6.848;2023-03-29T04:41:05;100992.41;;;8.04;72.26
53506;BME280;39388;50.936;6.848;2023-03-29T04:43:35;100976.94;;;7.96;72.34
53506;BME280;39388;50.936;6.848;2023-03-29T04:46:06;100989.84;;;8.07;72.72
53506;BME280;39388;50.936;6.848;2023-03-29T04:48:37;100987.28;;;8.07;72.47
53506;BME280;39388;50.936;6.848;2023-03-29T04:51:07;100976.13;;;8.04;72.53
53506;BME280;39388;50.936;6.848;2023-03-29T04:53:38;100976.13;;;8.05;72.92
53506;BME280;39388;50.936;6.848;2023-03-29T04:56:08;100971.88;;;8.07;72.28
53506;BME280;39388;50.936;6.848;2023-03-29T04:58:39;100981.28;;;8.08;72.55
53506;BME280;39388;50.936;6.848;2023-03-29T05:01:09;100982.19;;;8.10;72.32
53506;BME280;39388;50.936;6.848;2023-03-29T05:03:40;100973.63;;;8.11;72.72
53506;BME280;39388;50.936;6.848;2023-03-29T05:06:11;100951.22;;;7.93;72.35
53506;BME280;39388;50.936;6.848;2023-03-29T05:08:41;100974.50;;;8.12;72.42
53506;BME280;39388;50.936;6.848;2023-03-29T05:11:12;100971.09;;;8.15;72.60
53506;BME280;39388;50.936;6.848;2023-03-29T05:13:42;100977.91;;;8.14;72.45
53506;BME280;39388;50.936;6.848;2023-03-29T05:16:13;100972.78;;;8.14;72.48
53506;BME280;39388;50.936;6.848;2023-03-29T05:18:44;100975.38;;;8.16;72.98
53506;BME280;39388;50.936;6.848;2023-03-29T05:21:15;100978.00;;;8.19;72.51
53506;BME280;39388;50.936;6.848;2023-03-29T05:23:45;100969.41;;;8.17;73.00
53506;BME280;39388;50.936;6.848;2023-03-29T05:26:15;100967.72;;;8.19;72.62
53506;BME280;39388;50.936;6.848;2023-03-29T05:28:47;100971.13;;;8.21;72.81
53506;BME280;39388;50.936;6.848;2023-03-29T05:31:17;100972.84;;;8.20;73.03
53506;BME280;39388;50.936;6.848;2023-03-29T05:33:49;100971.16;;;8.24;72.99
53506;BME280;39388;50.936;6.848;2023-03-29T05:36:20;100966.91;;;8.26;73.02
53506;BME280;39388;50.936;6.848;2023-03-29T05:38:50;100960.03;;;8.23;73.16
53506;BME280;39388;50.936;6.848;2023-03-29T05:41:21;100956.63;;;8.24;72.46
53506;BME280;39388;50.936;6.848;2023-03-29T05:43:52;100955.78;;;8.28;72.66
53506;BME280;39388;50.936;6.848;2023-03-29T05:46:23;100960.13;;;8.33;72.79
53506;BME280;39388;50.936;6.848;2023-03-29T05:48:53;100958.41;;;8.36;72.44
53506;BME280;39388;50.936;6.848;2023-03-29T05:51:24;100960.16;;;8.36;72.85
53506;BME280;39388;50.936;6.848;2023-03-29T05:53:54;100955.88;;;8.38;72.31
53506;BME280;39388;50.936;6.848;2023-03-29T05:56:24;100945.59;;;8.39;72.60
53506;BME280;39388;50.936;6.848;2023-03-29T05:58:55;100946.47;;;8.43;72.47
53506;BME280;39388;50.936;6.848;2023-03-29T06:01:26;100942.25;;;8.47;72.29
53506;BME280;39388;50.936;6.848;2023-03-29T06:03:56;100948.25;;;8.50;72.44
53506;BME280;39388;50.936;6.848;2023-03-29T06:06:27;100941.41;;;8.51;72.32
53506;BME280;39388;50.936;6.848;2023-03-29T06:08:58;100939.72;;;8.53;72.31
53506;BME280;39388;50.936;6.848;2023-03-29T06:11:28;100947.44;;;8.57;72.30
53506;BME280;39388;50.936;6.848;2023-03-29T06:13:59;100946.63;;;8.60;72.12
53506;BME280;39388;50.936;6.848;2023-03-29T06:16:31;100955.19;;;8.61;71.70
53506;BME280;39388;50.936;6.848;2023-03-29T06:19:01;100956.06;;;8.63;71.85
53506;BME280;39388;50.936;6.848;2023-03-29T06:21:32;100953.50;;;8.61;71.57
53506;BME280;39388;50.936;6.848;2023-03-29T06:24:03;100956.06;;;8.61;71.69
53506;BME280;39388;50.936;6.848;2023-03-29T06:26:33;100959.50;;;8.65;71.53
53506;BME280;39388;50.936;6.848;2023-03-29T06:29:04;100962.94;;;8.67;71.33
53506;BME280;39388;50.936;6.848;2023-03-29T06:31:34;100943.19;;;8.59;71.65
53506;BME280;39388;50.936;6.848;2023-03-29T06:34:05;100962.97;;;8.71;71.19
53506;BME280;39388;50.936;6.848;2023-03-29T06:36:35;100959.59;;;8.77;71.49
53506;BME280;39388;50.936;6.848;2023-03-29T06:39:06;100951.03;;;8.78;71.21
53506;BME280;39388;50.936;6.848;2023-03-29T06:41:37;100953.63;;;8.87;71.03
53506;BME280;39388;50.936;6.848;2023-03-29T06:44:08;100937.34;;;8.82;70.93
53506;BME280;39388;50.936;6.848;2023-03-29T06:46:39;100972.59;;;9.02;70.77
53506;BME280;39388;50.936;6.848;2023-03-29T06:49:09;100969.22;;;9.09;70.84
53506;BME280;39388;50.936;6.848;2023-03-29T06:51:40;100983.78;;;9.13;70.47
53506;BME280;39388;50.936;6.848;2023-03-29T06:54:11;100982.97;;;9.22;70.53
53506;BME280;39388;50.936;6.848;2023-03-29T06:56:41;100978.72;;;9.26;70.17
53506;BME280;39388;50.936;6.848;2023-03-29T06:59:12;100969.28;;;9.28;70.32
53506;BME280;39388;50.936;6.848;2023-03-29T07:01:42;100973.63;;;9.33;70.39
53506;BME280;39388;50.936;6.848;2023-03-29T07:04:14;100978.81;;;9.46;70.07
53506;BME280;39388;50.936;6.848;2023-03-29T07:06:45;100971.94;;;9.49;69.59
53506;BME280;39388;50.936;6.848;2023-03-29T07:09:17;100971.97;;;9.57;69.74
53506;BME280;39388;50.936;6.848;2023-03-29T07:11:49;100977.16;;;9.65;69.49
53506;BME280;39388;50.936;6.848;2023-03-29T07:14:20;100970.28;;;9.62;69.58
53506;BME280;39388;50.936;6.848;2023-03-29T07:16:50;100972.88;;;9.67;69.53
53506;BME280;39388;50.936;6.848;2023-03-29T07:19:21;100967.72;;;9.64;69.41
53506;BME280;39388;50.936;6.848;2023-03-29T07:21:53;100966.00;;;9.63;69.93
53506;BME280;39388;50.936;6.848;2023-03-29T07:24:23;100963.41;;;9.58;69.89
53506;BME280;39388;50.936;6.848;2023-03-29T07:26:54;100969.44;;;9.66;69.52
53506;BME280;39388;50.936;6.848;2023-03-29T07:29:24;100984.91;;;9.74;69.81
53506;BME280;39388;50.936;6.848;2023-03-29T07:31:55;100986.66;;;9.77;69.83
53506;BME280;39388;50.936;6.848;2023-03-29T07:34:26;100976.34;;;9.78;69.49
53506;BME280;39388;50.936;6.848;2023-03-29T07:36:56;100979.81;;;9.90;69.81
53506;BME280;39388;50.936;6.848;2023-03-29T07:39:26;100966.94;;;9.94;69.60
53506;BME280;39388;50.936;6.848;2023-03-29T07:41:57;100972.97;;;10.06;69.17
53506;BME280;39388;50.936;6.848;2023-03-29T07:44:27;100976.44;;;10.28;69.00
53506;BME280;39388;50.936;6.848;2023-03-29T07:47:00;100971.31;;;10.48;68.83
53506;BME280;39388;50.936;6.848;2023-03-29T07:49:31;100977.31;;;10.67;68.34
53506;BME280;39388;50.936;6.848;2023-03-29T07:52:01;100976.41;;;10.79;67.91
53506;BME280;39388;50.936;6.848;2023-03-29T07:54:33;100985.03;;;10.83;67.75
53506;BME280;39388;50.936;6.848;2023-03-29T07:57:03;100978.09;;;10.85;67.53
53506;BME280;39388;50.936;6.848;2023-03-29T07:59:34;100983.25;;;10.96;67.94
53506;BME280;39388;50.936;6.848;2023-03-29T08:02:04;100988.41;;;11.00;68.07
53506;BME280;39388;50.936;6.848;2023-03-29T08:04:35;100979.78;;;11.08;68.18
53506;BME280;39388;50.936;6.848;2023-03-29T08:07:06;100989.19;;;11.23;67.85
53506;BME280;39388;50.936;6.848;2023-03-29T08:09:36;100953.91;;;11.28;67.49
53506;BME280;39388;50.936;6.848;2023-03-29T08:12:07;100978.72;;;11.68;66.76
53506;BME280;39388;50.936;6.848;2023-03-29T08:14:38;100978.59;;;11.92;66.05
53506;BME280;39388;50.936;6.848;2023-03-29T08:17:08;100975.00;;;12.17;66.17
53506;BME280;39388;50.936;6.848;2023-03-29T08:19:39;100978.22;;;12.42;65.43
53506;BME280;39388;50.936;6.848;2023-03-29T08:22:09;100976.47;;;12.44;64.93
53506;BME280;39388;50.936;6.848;2023-03-29T08:24:39;100973.09;;;12.37;64.95
53506;BME280;39388;50.936;6.848;2023-03-29T08:27:10;100971.41;;;12.35;65.24
53506;BME280;39388;50.936;6.848;2023-03-29T08:29:41;100978.31;;;12.30;65.46
53506;BME280;39388;50.936;6.848;2023-03-29T08:32:11;100969.78;;;12.21;65.50
53506;BME280;39388;50.936;6.848;2023-03-29T08:34:41;100971.53;;;12.13;65.85
53506;BME280;39388;50.936;6.848;2023-03-29T08:37:12;100979.34;;;12.08;66.12
53506;BME280;39388;50.936;6.848;2023-03-29T08:39:43;100975.09;;;12.01;66.15
53506;BME280;39388;50.936;6.848;2023-03-29T08:50:50;100974.25;;;11.99;66.70
53506;BME280;39388;50.936;6.848;2023-03-29T08:53:39;100978.53;;;12.02;66.74
53506;BME280;39388;50.936;6.848;2023-03-29T08:56:14;100966.50;;;11.98;66.76
53506;BME280;39388;50.936;6.848;2023-03-29T08:58:46;100973.38;;;11.97;67.02
53506;BME280;39388;50.936;6.848;2023-03-29T09:01:19;100963.13;;;11.88;67.08
53506;BME280;39388;50.936;6.848;2023-03-29T09:04:05;100964.78;;;11.92;66.94
53506;BME280;39388;50.936;6.848;2023-03-29T09:06:38;100966.50;;;11.93;67.51
53506;BME280;39388;50.936;6.848;2023-03-29T09:09:21;100969.09;;;11.98;67.53
53506;BME280;39388;50.936;6.848;2023-03-29T09:31:46;100965.47;;;12.23;67.97
53506;BME280;39388;50.936;6.848;2023-03-29T09:34:22;100960.28;;;12.23;67.69
53506;BME280;39388;50.936;6.848;2023-03-29T09:37:06;100964.56;;;12.29;67.95
53506;BME280;39388;50.936;6.848;2023-03-29T09:39:39;100956.78;;;12.28;68.01
53506;BME280;39388;50.936;6.848;2023-03-29T09:42:11;100960.19;;;12.36;67.80
53506;BME280;39388;50.936;6.848;2023-03-29T09:44:47;100954.13;;;12.38;67.96
53506;BME280;39388;50.936;6.848;2023-03-29T09:47:24;100962.72;;;12.44;68.03
53506;BME280;39388;50.936;6.848;2023-03-29T09:50:11;100955.78;;;12.44;68.00
53506;BME280;39388;50.936;6.848;2023-03-29T09:52:42;100952.38;;;12.44;67.87
53506;BME280;39388;50.936;6.848;2023-03-29T09:55:14;100948.00;;;12.47;67.91
53506;BME280;39388;50.936;6.848;2023-03-29T09:57:45;100941.13;;;12.48;68.11
53506;BME280;39388;50.936;6.848;2023-03-29T10:00:16;100937.56;;;12.58;68.35
53506;BME280;39388;50.936;6.848;2023-03-29T10:02:56;100947.81;;;12.69;68.37
53506;BME280;39388;50.936;6.848;2023-03-29T10:05:29;100945.94;;;12.82;68.14
53506;BME280;39388;50.936;6.848;2023-03-29T10:08:16;100937.25;;;12.88;67.68
53506;BME280;39388;50.936;6.848;2023-03-29T10:10:48;100947.47;;;13.00;67.88
53506;BME280;39388;50.936;6.848;2023-03-29T10:13:28;100934.50;;;13.05;67.47
53506;BME280;39388;50.936;6.848;2023-03-29T10:16:04;100941.31;;;13.12;67.38
53506;BME280;39388;50.936;6.848;2023-03-29T10:18:40;100933.50;;;13.13;67.64
53506;BME280;39388;50.936;6.848;2023-03-29T10:21:13;100940.31;;;13.24;67.67
53506;BME280;39388;50.936;6.848;2023-03-29T10:23:51;100940.16;;;13.35;67.17
53506;BME280;39388;50.936;6.848;2023-03-29T10:26:31;100928.03;;;13.41;66.94
53506;BME280;39388;50.936;6.848;2023-03-29T10:29:04;100939.13;;;13.53;67.27
53506;BME280;39388;50.936;6.848;2023-03-29T10:31:36;100924.28;;;13.64;66.81
53506;BME280;39388;50.936;6.848;2023-03-29T10:34:12;100930.06;;;13.82;66.69
53506;BME280;39388;50.936;6.848;2023-03-29T10:36:56;100925.53;;;13.96;66.40
53506;BME280;39388;50.936;6.848;2023-03-29T10:39:32;100914.22;;;14.00;66.36
53506;BME280;39388;50.936;6.848;2023-03-29T10:42:03;100921.63;;;14.23;65.89
53506;BME280;39388;50.936;6.848;2023-03-29T10:44:34;100925.66;;;14.40;65.73
53506;BME280;39388;50.936;6.848;2023-03-29T10:47:16;100921.91;;;14.57;65.38
53506;BME280;39388;50.936;6.848;2023-03-29T10:49:54;100930.22;;;14.76;65.01
53506;BME280;39388;50.936;6.848;2023-03-29T10:52:25;100921.38;;;14.86;64.74
53506;BME280;39388;50.936;6.848;2023-03-29T10:54:55;100923.81;;;14.95;64.60
53506;BME280;39388;50.936;6.848;2023-03-29T10:57:52;100910.75;;;15.00;64.25
53506;BME280;39388;50.936;6.848;2023-03-29T11:00:33;100908.09;;;15.02;63.96
53506;BME280;39388;50.936;6.848;2023-03-29T11:03:32;100904.56;;;15.06;64.05
53506;BME280;39388;50.936;6.848;2023-03-29T11:08:58;100904.47;;;15.10;64.00
53506;BME280;39388;50.936;6.848;2023-03-29T11:14:19;100901.94;;;15.07;63.84
53506;BME280;39388;50.936;6.848;2023-03-29T11:17:02;100904.66;;;15.01;63.95
53506;BME280;39388;50.936;6.848;2023-03-29T11:22:58;100901.09;;;15.07;63.95
53506;BME280;39388;50.936;6.848;2023-03-29T11:31:13;100896.41;;;15.23;63.71
53506;BME280;39388;50.936;6.848;2023-03-29T11:34:02;100889.28;;;15.33;63.51
53506;BME280;39388;50.936;6.848;2023-03-29T11:42:19;100864.50;;;15.57;63.28
53506;BME280;39388;50.936;6.848;2023-03-29T11:44:52;100873.59;;;15.76;63.12
53506;BME280;39388;50.936;6.848;2023-03-29T11:47:27;100873.22;;;15.92;62.78
53506;BME280;39388;50.936;6.848;2023-03-29T11:50:39;100870.13;;;16.12;62.53
53506;BME280;39388;50.936;6.848;2023-03-29T11:53:15;100857.56;;;16.28;62.11
53506;BME280;39388;50.936;6.848;2023-03-29T11:55:51;100851.28;;;16.35;62.03
53506;BME280;39388;50.936;6.848;2023-03-29T11:58:34;100862.44;;;16.41;61.74
53506;BME280;39388;50.936;6.848;2023-03-29T12:01:17;100868.53;;;16.41;61.49
53506;BME280;39388;50.936;6.848;2023-03-29T12:03:54;100859.00;;;16.40;61.68
53506;BME280;39388;50.936;6.848;2023-03-29T12:06:41;100859.78;;;16.42;61.42
53506;BME280;39388;50.936;6.848;2023-03-29T12:09:33;100871.59;;;16.56;61.80
53506;BME280;39388;50.936;6.848;2023-03-29T12:12:12;100874.03;;;16.62;61.92
53506;BME280;39388;50.936;6.848;2023-03-29T12:14:59;100860.19;;;16.60;61.32
53506;BME280;39388;50.936;6.848;2023-03-29T12:20:38;100853.72;;;16.75;61.21
53506;BME280;39388;50.936;6.848;2023-03-29T12:23:12;100843.91;;;16.85;61.13
53506;BME280;39388;50.936;6.848;2023-03-29T12:25:56;100844.28;;;17.01;60.48
53506;BME280;39388;50.936;6.848;2023-03-29T12:29:04;100828.38;;;17.10;60.13
53506;BME280;39388;50.936;6.848;2023-03-29T12:40:38;100818.72;;;17.13;59.58
53506;BME280;39388;50.936;6.848;2023-03-29T12:43:22;100825.44;;;17.21;59.44
53506;BME280;39388;50.936;6.848;2023-03-29T12:45:56;100823.22;;;17.37;59.22
53506;BME280;39388;50.936;6.848;2023-03-29T12:48:30;100802.03;;;17.49;59.17
53506;BME280;39388;50.936;6.848;2023-03-29T12:51:02;100818.91;;;17.64;58.89
53506;BME280;39388;50.936;6.848;2023-03-29T12:53:37;100814.44;;;17.68;58.53
53506;BME280;39388;50.936;6.848;2023-03-29T12:56:19;100810.75;;;17.73;58.52
53506;BME280;39388;50.936;6.848;2023-03-29T13:01:30;100811.00;;;17.66;58.48
53506;BME280;39388;50.936;6.848;2023-03-29T13:04:20;100812.84;;;17.64;58.20
53506;BME280;39388;50.936;6.848;2023-03-29T13:06:55;100812.72;;;17.67;58.07
53506;BME280;39388;50.936;6.848;2023-03-29T13:09:49;100799.19;;;17.82;57.82
53506;BME280;39388;50.936;6.848;2023-03-29T13:15:03;100792.53;;;17.99;57.17
53506;BME280;39388;50.936;6.848;2023-03-29T13:28:55;100789.19;;;17.95;57.26
53506;BME280;39388;50.936;6.848;2023-03-29T13:34:17;100778.16;;;17.87;57.54
53506;BME280;39388;50.936;6.848;2023-03-29T13:39:32;100787.75;;;17.86;57.61
53506;BME280;39388;50.936;6.848;2023-03-29T13:42:17;100781.53;;;17.91;57.27
53506;BME280;39388;50.936;6.848;2023-03-29T13:44:51;100776.19;;;17.94;57.33
53506;BME280;39388;50.936;6.848;2023-03-29T13:47:36;100773.53;;;17.95;57.19
53506;BME280;39388;50.936;6.848;2023-03-29T13:52:57;100763.94;;;17.96;57.11
53506;BME280;39388;50.936;6.848;2023-03-29T13:55:29;100755.94;;;18.00;57.31
53506;BME280;39388;50.936;6.848;2023-03-29T13:58:10;100749.88;;;18.00;57.29
53506;BME280;39388;50.936;6.848;2023-03-29T14:00:51;100743.03;;;17.97;56.98
53506;BME280;39388;50.936;6.848;2023-03-29T14:03:24;100724.25;;;17.87;57.00
53506;BME280;39388;50.936;6.848;2023-03-29T14:06:00;100725.69;;;17.96;56.70
53506;BME280;39388;50.936;6.848;2023-03-29T14:08:35;100730.13;;;17.93;56.90
53506;BME280;39388;50.936;6.848;2023-03-29T14:11:23;100719.03;;;17.87;56.84
53506;BME280;39388;50.936;6.848;2023-03-29T14:13:59;100714.78;;;17.85;56.87
53506;BME280;39388;50.936;6.848;2023-03-29T14:16:32;100698.16;;;17.87;56.84
53506;BME280;39388;50.936;6.848;2023-03-29T14:19:16;100703.09;;;17.95;56.64
53506;BME280;39388;50.936;6.848;2023-03-29T14:21:48;100700.38;;;17.98;56.66
53506;BME280;39388;50.936;6.848;2023-03-29T14:24:25;100698.63;;;17.99;57.20
53506;BME280;39388;50.936;6.848;2023-03-29T14:26:56;100679.63;;;17.95;57.32
53506;BME280;39388;50.936;6.848;2023-03-29T14:29:34;100683.81;;;17.99;57.20
53506;BME280;39388;50.936;6.848;2023-03-29T14:32:15;100678.75;;;17.95;56.84
53506;BME280;39388;50.936;6.848;2023-03-29T14:34:48;100677.97;;;17.93;56.73
53506;BME280;39388;50.936;6.848;2023-03-29T14:37:26;100677.91;;;17.94;56.58
53506;BME280;39388;50.936;6.848;2023-03-29T14:39:58;100683.16;;;17.93;56.47
53506;BME280;39388;50.936;6.848;2023-03-29T14:42:28;100686.56;;;17.95;56.55
53506;BME280;39388;50.936;6.848;2023-03-29T14:45:03;100685.56;;;17.99;56.52
53506;BME280;39388;50.936;6.848;2023-03-29T14:47:35;100682.22;;;17.95;56.36
53506;BME280;39388;50.936;6.848;2023-03-29T14:50:15;100681.38;;;17.95;56.54
53506;BME280;39388;50.936;6.848;2023-03-29T14:52:49;100670.25;;;17.89;56.52
53506;BME280;39388;50.936;6.848;2023-03-29T14:55:20;100678.88;;;17.92;56.39
53506;BME280;39388;50.936;6.848;2023-03-29T14:57:53;100668.50;;;17.90;56.61
53506;BME280;39388;50.936;6.848;2023-03-29T15:03:00;100673.97;;;17.82;56.70
53506;BME280;39388;50.936;6.848;2023-03-29T15:05:39;100669.94;;;17.73;56.81
53506;BME280;39388;50.936;6.848;2023-03-29T15:08:30;100660.75;;;17.63;57.33
53506;BME280;39388;50.936;6.848;2023-03-29T15:11:02;100656.44;;;17.62;57.38
53506;BME280;39388;50.936;6.848;2023-03-29T15:13:32;100648.78;;;17.57;57.25
53506;BME280;39388;50.936;6.848;2023-03-29T15:16:04;100654.09;;;17.54;57.38
53506;BME280;39388;50.936;6.848;2023-03-29T15:18:37;100644.75;;;17.49;57.24